Aeroporto :
LOGIN :

Iscrizione | Disclaimer

   EN    FR    IT 

 










Sommario :    VFR   VFR Marginale   IFR   IFR Intensivo   IFR Molto Intensivo
Visibilità : 
Base nubi : 
>= 8 km
>= 3000ft
5 / 8 km
1000 / 3000 ft
1500m / 5 km
500 / 1000 ft
800 / 1500m
200 / 500 ft
< 800m
< 200 ft
Simboli :   Temporali  Nebbia  Neve Forte  Precipitazioni Forti  Vento > 20 kt
SIGMETs :   Varie  Temporali  Ghiacco  Turbolenza  Onda orograficha  Ceneri Vulcaniche






- Altitudine del aeroporto : 160 ft
- Codice IATA : LRT


LFRH - Lorient Lann Bihoue

ULTIMO METAR :
  • 212100Z AUTO 24014KT CAVOK 09/06 Q0997 TEMPO 20015G25KT 4000 SHRA BKN020CB

METARs OBSOLETI :
  • 212030Z AUTO 24013KT 9999 ///TCU 09/06 Q0996 TEMPO 20015G25KT 4000 SHRA BKN020CB
  • 212000Z AUTO 22013KT 9999 -RA BKN032/// BKN045/// BKN060/// ///TCU 09/06 Q0996 TEMPO 20015G25KT 4000 SHRA BKN020CB
  • 211930Z AUTO 21011KT 9999 BKN028/// BKN038/// BKN052/// ///CB 09/07 Q0997 TEMPO 20015G25KT 4000 SHRA
  • 211900Z AUTO 21012G25KT 170V240 7000 -RA FEW023/// BKN030/// BKN042/// ///TCU 08/06 Q0997 TEMPO 4000 SHRA BKN020CB
  • 211830Z AUTO 18003KT 150V240 9999 SCT029/// BKN035/// BKN130/// ///TCU 08/06 Q0997 TEMPO 20015G25KT 4000 SHRA BKN020CB

TAF TAF LFRH
Valido dal 21 a 18 ore il 22 a 18 ore UTC


211700Z 2118/2218 20010KT 9999 BKN035
TEMPO 2118/2208 20015G25KT 4000 SHRA BKN025CB
PROB40
TEMPO 2118/2123 TSRAGS BKN020CB
BECMG 2208/2211 12015G25KT
PROB40
TEMPO 2208/2211 BKN008
BECMG 2211/2213 12020G30KT -RA SCT008 OVC018
BECMG 2215/2218 3500 RA BKN004 OVC006



MetMap, La meteo Aeronautica in un colpo d'occhio ! - Copyright ORBIFLY Dicembre 2007 - Disclaimer

ORBIFLY MET'MAP TEAM :

Programmazione e sviluppo : Alexandra Zaïnal
Concezione e sviluppo : Baudouin d'Aumeries
Co-Programmazione e sviluppo : Marc-Olivier Méhu
Supporto tecnico e logistico : Manuel Goepfert
Aiuto per la traduzione : Arnaldo La Scala

Contatto : metmap@orbifly.com




FONTI E CREDITI :

   NOAA